sensor_id;sensor_type;location;lat;lon;timestamp;temperature;humidity
11505;DHT22;5809;53.262;10.408;2023-04-03T00:00:10;-0.40;99.90
11505;DHT22;5809;53.262;10.408;2023-04-03T00:02:37;-0.40;99.90
11505;DHT22;5809;53.262;10.408;2023-04-03T00:05:07;-0.50;99.90
11505;DHT22;5809;53.262;10.408;2023-04-03T00:10:02;-0.50;99.90
11505;DHT22;5809;53.262;10.408;2023-04-03T00:12:29;-0.50;99.90
11505;DHT22;5809;53.262;10.408;2023-04-03T00:14:56;-0.60;99.90
11505;DHT22;5809;53.262;10.408;2023-04-03T00:19:50;-0.60;99.90
11505;DHT22;5809;53.262;10.408;2023-04-03T00:22:18;-0.70;99.90
11505;DHT22;5809;53.262;10.408;2023-04-03T00:27:12;-0.70;99.90
11505;DHT22;5809;53.262;10.408;2023-04-03T00:29:41;-0.70;99.90
11505;DHT22;5809;53.262;10.408;2023-04-03T00:32:08;-0.70;99.90
11505;DHT22;5809;53.262;10.408;2023-04-03T00:37:02;-0.80;99.90
11505;DHT22;5809;53.262;10.408;2023-04-03T00:39:30;-0.70;99.90
11505;DHT22;5809;53.262;10.408;2023-04-03T00:41:58;-0.80;99.90
11505;DHT22;5809;53.262;10.408;2023-04-03T00:47:27;-0.70;99.90
11505;DHT22;5809;53.262;10.408;2023-04-03T00:52:25;-0.80;99.90
11505;DHT22;5809;53.262;10.408;2023-04-03T00:54:57;-0.80;99.90
11505;DHT22;5809;53.262;10.408;2023-04-03T00:57:25;-0.80;99.90
11505;DHT22;5809;53.262;10.408;2023-04-03T00:59:55;-0.80;99.90
11505;DHT22;5809;53.262;10.408;2023-04-03T01:02:23;-0.80;99.90
11505;DHT22;5809;53.262;10.408;2023-04-03T01:07:20;-1.00;99.90
11505;DHT22;5809;53.262;10.408;2023-04-03T01:09:50;-1.00;99.90
11505;DHT22;5809;53.262;10.408;2023-04-03T01:12:21;-1.00;99.90
11505;DHT22;5809;53.262;10.408;2023-04-03T01:14:50;-1.00;99.90
11505;DHT22;5809;53.262;10.408;2023-04-03T01:17:28;-1.10;99.90
11505;DHT22;5809;53.262;10.408;2023-04-03T01:20:15;-1.10;99.90
11505;DHT22;5809;53.262;10.408;2023-04-03T01:22:56;-1.10;99.90
11505;DHT22;5809;53.262;10.408;2023-04-03T01:25:24;-1.10;99.90
11505;DHT22;5809;53.262;10.408;2023-04-03T01:27:52;-1.10;99.90
11505;DHT22;5809;53.262;10.408;2023-04-03T01:30:21;-1.10;99.90
11505;DHT22;5809;53.262;10.408;2023-04-03T01:32:53;-1.20;99.90
11505;DHT22;5809;53.262;10.408;2023-04-03T01:35:20;-1.20;99.90
11505;DHT22;5809;53.262;10.408;2023-04-03T01:37:47;-1.20;99.90
11505;DHT22;5809;53.262;10.408;2023-04-03T01:42:41;-1.20;99.90
11505;DHT22;5809;53.262;10.408;2023-04-03T01:45:08;-1.20;99.90
11505;DHT22;5809;53.262;10.408;2023-04-03T01:47:35;-1.20;99.90
11505;DHT22;5809;53.262;10.408;2023-04-03T01:50:04;-1.20;99.90
11505;DHT22;5809;53.262;10.408;2023-04-03T01:59:53;-1.20;99.90
11505;DHT22;5809;53.262;10.408;2023-04-03T02:07:16;-1.30;99.90
11505;DHT22;5809;53.262;10.408;2023-04-03T02:09:43;-1.30;99.90
11505;DHT22;5809;53.262;10.408;2023-04-03T02:12:10;-1.40;99.90
11505;DHT22;5809;53.262;10.408;2023-04-03T02:14:36;-1.30;99.90
11505;DHT22;5809;53.262;10.408;2023-04-03T02:17:03;-1.40;99.90
11505;DHT22;5809;53.262;10.408;2023-04-03T02:22:01;-1.40;99.90
11505;DHT22;5809;53.262;10.408;2023-04-03T02:24:29;-1.40;99.90
11505;DHT22;5809;53.262;10.408;2023-04-03T02:29:23;-1.50;99.90
11505;DHT22;5809;53.262;10.408;2023-04-03T02:34:18;-1.50;99.90
11505;DHT22;5809;53.262;10.408;2023-04-03T02:39:12;-1.60;99.90
11505;DHT22;5809;53.262;10.408;2023-04-03T02:41:40;-1.60;99.90
11505;DHT22;5809;53.262;10.408;2023-04-03T02:44:10;-1.60;99.90
11505;DHT22;5809;53.262;10.408;2023-04-03T02:49:04;-1.60;99.90
11505;DHT22;5809;53.262;10.408;2023-04-03T02:53:59;-1.70;99.90
11505;DHT22;5809;53.262;10.408;2023-04-03T02:56:26;-1.70;99.90
11505;DHT22;5809;53.262;10.408;2023-04-03T02:58:54;-1.70;99.90
11505;DHT22;5809;53.262;10.408;2023-04-03T03:06:17;-1.70;99.90
11505;DHT22;5809;53.262;10.408;2023-04-03T03:11:11;-1.70;99.90
11505;DHT22;5809;53.262;10.408;2023-04-03T03:13:38;-1.70;99.90
11505;DHT22;5809;53.262;10.408;2023-04-03T03:16:07;-1.70;99.90
11505;DHT22;5809;53.262;10.408;2023-04-03T03:18:35;-1.70;99.90
11505;DHT22;5809;53.262;10.408;2023-04-03T03:21:03;-1.80;99.90
11505;DHT22;5809;53.262;10.408;2023-04-03T03:23:31;-1.80;99.90
11505;DHT22;5809;53.262;10.408;2023-04-03T03:26:01;-1.70;99.90
11505;DHT22;5809;53.262;10.408;2023-04-03T03:28:28;-1.70;99.90
11505;DHT22;5809;53.262;10.408;2023-04-03T03:30:56;-1.80;99.90
11505;DHT22;5809;53.262;10.408;2023-04-03T03:33:24;-1.80;99.90
11505;DHT22;5809;53.262;10.408;2023-04-03T03:35:52;-1.80;99.90
11505;DHT22;5809;53.262;10.408;2023-04-03T03:38:19;-1.90;99.90
11505;DHT22;5809;53.262;10.408;2023-04-03T03:40:47;-1.90;99.90
11505;DHT22;5809;53.262;10.408;2023-04-03T03:43:14;-1.90;99.90
11505;DHT22;5809;53.262;10.408;2023-04-03T03:45:41;-1.90;99.90
11505;DHT22;5809;53.262;10.408;2023-04-03T03:48:08;-1.90;99.90
11505;DHT22;5809;53.262;10.408;2023-04-03T03:50:36;-1.90;99.90
11505;DHT22;5809;53.262;10.408;2023-04-03T03:53:03;-1.90;99.90
11505;DHT22;5809;53.262;10.408;2023-04-03T03:55:30;-2.00;99.90
11505;DHT22;5809;53.262;10.408;2023-04-03T03:57:57;-2.00;99.90
11505;DHT22;5809;53.262;10.408;2023-04-03T04:00:25;-2.00;99.90
11505;DHT22;5809;53.262;10.408;2023-04-03T04:02:52;-2.00;99.90
11505;DHT22;5809;53.262;10.408;2023-04-03T04:05:19;-2.00;99.90
11505;DHT22;5809;53.262;10.408;2023-04-03T04:07:47;-2.00;99.90
11505;DHT22;5809;53.262;10.408;2023-04-03T04:10:14;-2.00;99.90
11505;DHT22;5809;53.262;10.408;2023-04-03T04:15:09;-2.10;99.90
11505;DHT22;5809;53.262;10.408;2023-04-03T04:17:36;-2.00;99.90
11505;DHT22;5809;53.262;10.408;2023-04-03T04:22:31;-2.10;99.90
11505;DHT22;5809;53.262;10.408;2023-04-03T04:24:59;-2.10;99.90
11505;DHT22;5809;53.262;10.408;2023-04-03T04:27:27;-2.10;99.90
11505;DHT22;5809;53.262;10.408;2023-04-03T04:32:21;-2.10;99.90
11505;DHT22;5809;53.262;10.408;2023-04-03T04:34:48;-2.10;99.90
11505;DHT22;5809;53.262;10.408;2023-04-03T04:37:15;-2.10;99.90
11505;DHT22;5809;53.262;10.408;2023-04-03T04:39:41;-2.10;99.90
11505;DHT22;5809;53.262;10.408;2023-04-03T04:42:10;-2.20;99.90
11505;DHT22;5809;53.262;10.408;2023-04-03T04:44:38;-2.20;99.90
11505;DHT22;5809;53.262;10.408;2023-04-03T04:47:05;-2.20;99.90
11505;DHT22;5809;53.262;10.408;2023-04-03T04:49:32;-2.10;99.90
11505;DHT22;5809;53.262;10.408;2023-04-03T04:56:53;-2.10;99.90
11505;DHT22;5809;53.262;10.408;2023-04-03T04:59:21;-2.10;99.90
11505;DHT22;5809;53.262;10.408;2023-04-03T05:01:48;-2.10;99.90
11505;DHT22;5809;53.262;10.408;2023-04-03T05:04:16;-2.10;99.90
11505;DHT22;5809;53.262;10.408;2023-04-03T05:06:43;-2.00;99.90
11505;DHT22;5809;53.262;10.408;2023-04-03T05:09:10;-1.90;99.90
11505;DHT22;5809;53.262;10.408;2023-04-03T05:11:37;-1.80;99.90
11505;DHT22;5809;53.262;10.408;2023-04-03T05:14:04;-1.60;99.90
11505;DHT22;5809;53.262;10.408;2023-04-03T05:16:33;-1.50;99.90
11505;DHT22;5809;53.262;10.408;2023-04-03T05:19:00;-1.50;99.90
11505;DHT22;5809;53.262;10.408;2023-04-03T05:21:27;-1.30;99.90
11505;DHT22;5809;53.262;10.408;2023-04-03T05:23:57;-1.10;99.90
11505;DHT22;5809;53.262;10.408;2023-04-03T05:26:24;-1.00;99.90
11505;DHT22;5809;53.262;10.408;2023-04-03T05:28:52;-0.70;99.90
11505;DHT22;5809;53.262;10.408;2023-04-03T05:31:19;-0.50;99.90
11505;DHT22;5809;53.262;10.408;2023-04-03T05:33:48;-0.30;99.90
11505;DHT22;5809;53.262;10.408;2023-04-03T05:36:15;-0.10;99.90
11505;DHT22;5809;53.262;10.408;2023-04-03T05:38:42;0.40;99.90
11505;DHT22;5809;53.262;10.408;2023-04-03T05:41:09;1.10;99.90
11505;DHT22;5809;53.262;10.408;2023-04-03T05:43:36;0.60;99.90
11505;DHT22;5809;53.262;10.408;2023-04-03T05:46:08;0.80;99.90
11505;DHT22;5809;53.262;10.408;2023-04-03T05:48:35;0.90;99.90
11505;DHT22;5809;53.262;10.408;2023-04-03T05:51:04;1.70;99.90
11505;DHT22;5809;53.262;10.408;2023-04-03T05:53:33;1.30;99.90
11505;DHT22;5809;53.262;10.408;2023-04-03T05:56:01;1.50;99.90
11505;DHT22;5809;53.262;10.408;2023-04-03T05:58:28;1.90;99.90
11505;DHT22;5809;53.262;10.408;2023-04-03T06:00:55;2.40;99.90
11505;DHT22;5809;53.262;10.408;2023-04-03T06:03:22;2.30;99.90
11505;DHT22;5809;53.262;10.408;2023-04-03T06:05:49;2.30;99.90
11505;DHT22;5809;53.262;10.408;2023-04-03T06:08:17;2.50;99.90
11505;DHT22;5809;53.262;10.408;2023-04-03T06:10:45;3.00;99.90
11505;DHT22;5809;53.262;10.408;2023-04-03T06:13:12;2.60;99.90
11505;DHT22;5809;53.262;10.408;2023-04-03T06:15:39;3.20;99.90
11505;DHT22;5809;53.262;10.408;2023-04-03T06:18:06;2.70;99.90
11505;DHT22;5809;53.262;10.408;2023-04-03T06:20:33;2.80;99.90
11505;DHT22;5809;53.262;10.408;2023-04-03T06:23:00;3.40;99.90
11505;DHT22;5809;53.262;10.408;2023-04-03T06:25:29;3.60;99.90
11505;DHT22;5809;53.262;10.408;2023-04-03T06:27:57;4.20;99.90
11505;DHT22;5809;53.262;10.408;2023-04-03T06:30:24;4.80;99.90
11505;DHT22;5809;53.262;10.408;2023-04-03T06:32:51;4.90;99.90
11505;DHT22;5809;53.262;10.408;2023-04-03T06:35:18;5.20;99.90
11505;DHT22;5809;53.262;10.408;2023-04-03T06:37:46;5.50;99.90
11505;DHT22;5809;53.262;10.408;2023-04-03T06:40:18;5.70;99.90
11505;DHT22;5809;53.262;10.408;2023-04-03T06:42:47;6.10;99.90
11505;DHT22;5809;53.262;10.408;2023-04-03T06:45:14;6.30;99.90
11505;DHT22;5809;53.262;10.408;2023-04-03T06:47:41;6.70;99.90
11505;DHT22;5809;53.262;10.408;2023-04-03T06:50:10;6.90;99.90
11505;DHT22;5809;53.262;10.408;2023-04-03T06:52:39;7.30;99.90
11505;DHT22;5809;53.262;10.408;2023-04-03T06:55:07;7.70;99.90
11505;DHT22;5809;53.262;10.408;2023-04-03T06:57:35;8.10;99.90
11505;DHT22;5809;53.262;10.408;2023-04-03T07:00:05;8.50;99.90
11505;DHT22;5809;53.262;10.408;2023-04-03T07:02:32;8.00;99.90
11505;DHT22;5809;53.262;10.408;2023-04-03T07:05:00;7.50;99.90
11505;DHT22;5809;53.262;10.408;2023-04-03T07:07:27;7.60;99.90
11505;DHT22;5809;53.262;10.408;2023-04-03T07:09:54;7.10;99.90
11505;DHT22;5809;53.262;10.408;2023-04-03T07:12:21;7.10;99.90
11505;DHT22;5809;53.262;10.408;2023-04-03T07:14:47;7.20;99.90
11505;DHT22;5809;53.262;10.408;2023-04-03T07:17:16;7.90;99.90
11505;DHT22;5809;53.262;10.408;2023-04-03T07:19:43;7.90;99.90
11505;DHT22;5809;53.262;10.408;2023-04-03T07:22:10;7.70;99.90
11505;DHT22;5809;53.262;10.408;2023-04-03T07:24:37;6.80;99.90
11505;DHT22;5809;53.262;10.408;2023-04-03T07:27:04;7.40;99.90
11505;DHT22;5809;53.262;10.408;2023-04-03T07:29:34;7.50;99.90
11505;DHT22;5809;53.262;10.408;2023-04-03T07:32:01;7.50;99.90
11505;DHT22;5809;53.262;10.408;2023-04-03T07:34:29;7.30;99.90
11505;DHT22;5809;53.262;10.408;2023-04-03T07:36:56;7.70;99.90
11505;DHT22;5809;53.262;10.408;2023-04-03T07:39:23;7.60;99.90
11505;DHT22;5809;53.262;10.408;2023-04-03T07:41:50;7.30;99.90
11505;DHT22;5809;53.262;10.408;2023-04-03T07:44:17;7.00;99.90
11505;DHT22;5809;53.262;10.408;2023-04-03T07:46:44;7.20;99.90
11505;DHT22;5809;53.262;10.408;2023-04-03T07:49:12;7.40;99.90
11505;DHT22;5809;53.262;10.408;2023-04-03T07:51:40;7.20;99.90
11505;DHT22;5809;53.262;10.408;2023-04-03T07:54:07;7.50;99.90
11505;DHT22;5809;53.262;10.408;2023-04-03T07:56:34;8.00;99.90
11505;DHT22;5809;53.262;10.408;2023-04-03T07:59:01;8.50;99.90
11505;DHT22;5809;53.262;10.408;2023-04-03T08:03:58;8.60;99.90
11505;DHT22;5809;53.262;10.408;2023-04-03T08:06:24;7.60;99.90
11505;DHT22;5809;53.262;10.408;2023-04-03T08:08:53;7.60;99.90
11505;DHT22;5809;53.262;10.408;2023-04-03T08:13:49;9.00;99.90
11505;DHT22;5809;53.262;10.408;2023-04-03T08:16:18;7.80;99.90
11505;DHT22;5809;53.262;10.408;2023-04-03T08:21:13;9.20;99.90
11505;DHT22;5809;53.262;10.408;2023-04-03T08:23:41;10.10;99.90
11505;DHT22;5809;53.262;10.408;2023-04-03T08:26:11;10.40;99.90
11505;DHT22;5809;53.262;10.408;2023-04-03T08:28:39;9.60;99.90
11505;DHT22;5809;53.262;10.408;2023-04-03T08:31:08;8.90;99.90
11505;DHT22;5809;53.262;10.408;2023-04-03T08:33:37;9.00;99.90
11505;DHT22;5809;53.262;10.408;2023-04-03T08:36:04;9.80;99.90
11505;DHT22;5809;53.262;10.408;2023-04-03T08:38:32;9.40;99.90
11505;DHT22;5809;53.262;10.408;2023-04-03T08:41:02;9.50;99.90
11505;DHT22;5809;53.262;10.408;2023-04-03T08:43:37;9.20;99.90
11505;DHT22;5809;53.262;10.408;2023-04-03T08:46:13;9.10;99.90
11505;DHT22;5809;53.262;10.408;2023-04-03T08:48:42;9.40;99.90
11505;DHT22;5809;53.262;10.408;2023-04-03T08:51:13;8.80;99.90
11505;DHT22;5809;53.262;10.408;2023-04-03T08:53:45;8.60;99.90
11505;DHT22;5809;53.262;10.408;2023-04-03T08:56:16;8.60;99.90
11505;DHT22;5809;53.262;10.408;2023-04-03T08:58:50;9.20;99.90
11505;DHT22;5809;53.262;10.408;2023-04-03T09:01:20;10.00;99.90
11505;DHT22;5809;53.262;10.408;2023-04-03T09:03:48;10.00;99.90
11505;DHT22;5809;53.262;10.408;2023-04-03T09:06:17;9.40;99.90
11505;DHT22;5809;53.262;10.408;2023-04-03T09:08:49;9.20;99.90
11505;DHT22;5809;53.262;10.408;2023-04-03T09:11:23;10.00;99.90
11505;DHT22;5809;53.262;10.408;2023-04-03T09:13:57;9.70;99.90
11505;DHT22;5809;53.262;10.408;2023-04-03T09:16:46;10.80;99.90
11505;DHT22;5809;53.262;10.408;2023-04-03T09:19:21;11.90;99.90
11505;DHT22;5809;53.262;10.408;2023-04-03T09:21:49;12.60;99.90
11505;DHT22;5809;53.262;10.408;2023-04-03T09:24:16;12.80;99.90
11505;DHT22;5809;53.262;10.408;2023-04-03T09:26:48;13.50;99.90
11505;DHT22;5809;53.262;10.408;2023-04-03T09:29:22;12.10;99.90
11505;DHT22;5809;53.262;10.408;2023-04-03T09:31:52;13.10;99.90
11505;DHT22;5809;53.262;10.408;2023-04-03T09:34:23;14.30;99.90
11505;DHT22;5809;53.262;10.408;2023-04-03T09:36:52;14.40;99.90
11505;DHT22;5809;53.262;10.408;2023-04-03T09:39:21;13.80;99.90
11505;DHT22;5809;53.262;10.408;2023-04-03T09:41:57;14.80;99.90
11505;DHT22;5809;53.262;10.408;2023-04-03T09:44:28;15.10;99.90
11505;DHT22;5809;53.262;10.408;2023-04-03T09:46:55;14.80;99.90
11505;DHT22;5809;53.262;10.408;2023-04-03T09:49:22;15.20;99.90
11505;DHT22;5809;53.262;10.408;2023-04-03T09:51:49;15.20;99.90
11505;DHT22;5809;53.262;10.408;2023-04-03T09:54:37;15.20;99.90
11505;DHT22;5809;53.262;10.408;2023-04-03T09:57:09;15.10;99.90
11505;DHT22;5809;53.262;10.408;2023-04-03T09:59:43;15.40;99.90
11505;DHT22;5809;53.262;10.408;2023-04-03T10:02:35;14.90;99.90
11505;DHT22;5809;53.262;10.408;2023-04-03T10:05:05;14.30;99.90
11505;DHT22;5809;53.262;10.408;2023-04-03T10:10:20;14.00;99.90
11505;DHT22;5809;53.262;10.408;2023-04-03T10:13:04;14.50;99.90
11505;DHT22;5809;53.262;10.408;2023-04-03T10:15:36;14.60;99.90
11505;DHT22;5809;53.262;10.408;2023-04-03T10:18:20;14.50;99.90
11505;DHT22;5809;53.262;10.408;2023-04-03T10:20:51;15.10;99.90
11505;DHT22;5809;53.262;10.408;2023-04-03T10:23:21;16.00;99.90
11505;DHT22;5809;53.262;10.408;2023-04-03T10:26:00;16.80;99.90
11505;DHT22;5809;53.262;10.408;2023-04-03T10:28:38;16.10;99.90
11505;DHT22;5809;53.262;10.408;2023-04-03T10:31:14;14.70;99.90
11505;DHT22;5809;53.262;10.408;2023-04-03T10:33:51;12.40;99.90
11505;DHT22;5809;53.262;10.408;2023-04-03T10:36:28;12.70;99.90
11505;DHT22;5809;53.262;10.408;2023-04-03T10:39:03;12.70;99.90
11505;DHT22;5809;53.262;10.408;2023-04-03T10:41:45;12.70;99.90
11505;DHT22;5809;53.262;10.408;2023-04-03T10:44:19;12.90;99.90
11505;DHT22;5809;53.262;10.408;2023-04-03T10:46:50;13.20;99.90
11505;DHT22;5809;53.262;10.408;2023-04-03T10:49:28;13.20;99.90
11505;DHT22;5809;53.262;10.408;2023-04-03T10:52:05;13.40;99.90
11505;DHT22;5809;53.262;10.408;2023-04-03T10:54:37;12.90;99.90
11505;DHT22;5809;53.262;10.408;2023-04-03T10:57:08;14.10;99.90
11505;DHT22;5809;53.262;10.408;2023-04-03T10:59:38;13.40;99.90
11505;DHT22;5809;53.262;10.408;2023-04-03T11:02:19;13.70;99.90
11505;DHT22;5809;53.262;10.408;2023-04-03T11:04:52;12.90;99.90
11505;DHT22;5809;53.262;10.408;2023-04-03T11:07:21;12.10;99.90
11505;DHT22;5809;53.262;10.408;2023-04-03T11:09:50;11.40;99.90
11505;DHT22;5809;53.262;10.408;2023-04-03T11:17:28;10.70;99.90
11505;DHT22;5809;53.262;10.408;2023-04-03T11:20:02;10.30;99.90
11505;DHT22;5809;53.262;10.408;2023-04-03T11:22:33;10.30;99.90
11505;DHT22;5809;53.262;10.408;2023-04-03T11:35:09;13.00;99.90
11505;DHT22;5809;53.262;10.408;2023-04-03T11:37:39;14.20;99.90
11505;DHT22;5809;53.262;10.408;2023-04-03T11:40:24;13.40;99.90
11505;DHT22;5809;53.262;10.408;2023-04-03T11:42:53;11.90;99.90
11505;DHT22;5809;53.262;10.408;2023-04-03T11:59:22;12.60;99.90
11505;DHT22;5809;53.262;10.408;2023-04-03T12:09:30;13.20;99.90
11505;DHT22;5809;53.262;10.408;2023-04-03T12:12:00;12.20;99.90
11505;DHT22;5809;53.262;10.408;2023-04-03T12:14:28;11.40;99.90
11505;DHT22;5809;53.262;10.408;2023-04-03T12:16:55;10.70;99.90
11505;DHT22;5809;53.262;10.408;2023-04-03T12:19:34;10.40;99.90
11505;DHT22;5809;53.262;10.408;2023-04-03T12:43:09;9.50;99.90
11505;DHT22;5809;53.262;10.408;2023-04-03T12:55:43;15.20;99.90
11505;DHT22;5809;53.262;10.408;2023-04-03T12:58:15;14.80;99.90
11505;DHT22;5809;53.262;10.408;2023-04-03T13:00:43;13.80;99.90
11505;DHT22;5809;53.262;10.408;2023-04-03T13:08:17;15.80;99.90
11505;DHT22;5809;53.262;10.408;2023-04-03T13:10:54;16.80;99.90
11505;DHT22;5809;53.262;10.408;2023-04-03T13:13:21;17.80;99.90
11505;DHT22;5809;53.262;10.408;2023-04-03T13:23:20;13.20;99.90
11505;DHT22;5809;53.262;10.408;2023-04-03T13:33:24;11.30;99.90
11505;DHT22;5809;53.262;10.408;2023-04-03T13:48:24;17.70;99.90
11505;DHT22;5809;53.262;10.408;2023-04-03T13:50:54;17.00;99.90
11505;DHT22;5809;53.262;10.408;2023-04-03T13:53:24;17.20;99.90
11505;DHT22;5809;53.262;10.408;2023-04-03T13:55:56;15.40;99.90
11505;DHT22;5809;53.262;10.408;2023-04-03T14:00:53;11.50;99.90
11505;DHT22;5809;53.262;10.408;2023-04-03T14:08:16;14.70;99.90
11505;DHT22;5809;53.262;10.408;2023-04-03T14:10:45;15.60;99.90
11505;DHT22;5809;53.262;10.408;2023-04-03T14:13:14;16.00;99.90
11505;DHT22;5809;53.262;10.408;2023-04-03T14:20:38;16.30;99.90
11505;DHT22;5809;53.262;10.408;2023-04-03T14:25:32;17.30;99.90
11505;DHT22;5809;53.262;10.408;2023-04-03T14:28:01;16.70;99.90
11505;DHT22;5809;53.262;10.408;2023-04-03T14:30:30;13.70;99.90
11505;DHT22;5809;53.262;10.408;2023-04-03T14:45:23;14.70;99.90
11505;DHT22;5809;53.262;10.408;2023-04-03T14:55:16;15.80;99.90
11505;DHT22;5809;53.262;10.408;2023-04-03T15:02:42;15.10;99.90
11505;DHT22;5809;53.262;10.408;2023-04-03T15:10:16;14.60;99.90
11505;DHT22;5809;53.262;10.408;2023-04-03T15:30:02;14.60;99.90
11505;DHT22;5809;53.262;10.408;2023-04-03T15:32:29;14.60;99.90
11505;DHT22;5809;53.262;10.408;2023-04-03T15:37:25;12.40;99.90
11505;DHT22;5809;53.262;10.408;2023-04-03T15:39:52;11.40;99.90
11505;DHT22;5809;53.262;10.408;2023-04-03T15:44:46;9.80;99.90
11505;DHT22;5809;53.262;10.408;2023-04-03T15:54:36;8.60;99.90
11505;DHT22;5809;53.262;10.408;2023-04-03T15:59:30;8.40;99.90
11505;DHT22;5809;53.262;10.408;2023-04-03T16:01:58;8.20;99.90
11505;DHT22;5809;53.262;10.408;2023-04-03T16:04:27;8.20;99.90
11505;DHT22;5809;53.262;10.408;2023-04-03T16:06:54;8.20;99.90
11505;DHT22;5809;53.262;10.408;2023-04-03T16:09:21;8.00;99.90
11505;DHT22;5809;53.262;10.408;2023-04-03T16:14:16;7.90;99.90
11505;DHT22;5809;53.262;10.408;2023-04-03T16:21:38;7.50;99.90
11505;DHT22;5809;53.262;10.408;2023-04-03T16:26:33;7.20;99.90
11505;DHT22;5809;53.262;10.408;2023-04-03T16:31:28;6.90;99.90
11505;DHT22;5809;53.262;10.408;2023-04-03T16:33:55;6.90;99.90
11505;DHT22;5809;53.262;10.408;2023-04-03T16:36:24;6.70;99.90
11505;DHT22;5809;53.262;10.408;2023-04-03T16:38:51;6.60;99.90
11505;DHT22;5809;53.262;10.408;2023-04-03T16:43:45;6.40;99.90
11505;DHT22;5809;53.262;10.408;2023-04-03T16:46:14;6.40;99.90
11505;DHT22;5809;53.262;10.408;2023-04-03T16:51:08;6.20;99.90
11505;DHT22;5809;53.262;10.408;2023-04-03T16:56:02;6.00;99.90
11505;DHT22;5809;53.262;10.408;2023-04-03T16:58:29;5.90;99.90
11505;DHT22;5809;53.262;10.408;2023-04-03T17:03:24;5.80;99.90
11505;DHT22;5809;53.262;10.408;2023-04-03T17:08:20;5.60;99.90
11505;DHT22;5809;53.262;10.408;2023-04-03T17:13:16;5.50;99.90
11505;DHT22;5809;53.262;10.408;2023-04-03T17:15:43;5.50;99.90
11505;DHT22;5809;53.262;10.408;2023-04-03T17:20:38;5.30;99.90
11505;DHT22;5809;53.262;10.408;2023-04-03T17:23:06;5.20;99.90
11505;DHT22;5809;53.262;10.408;2023-04-03T17:25:33;5.20;99.90
11505;DHT22;5809;53.262;10.408;2023-04-03T17:30:27;5.00;99.90
11505;DHT22;5809;53.262;10.408;2023-04-03T17:32:54;5.00;99.90
11505;DHT22;5809;53.262;10.408;2023-04-03T17:35:21;4.90;99.90
11505;DHT22;5809;53.262;10.408;2023-04-03T17:37:49;4.80;99.90
11505;DHT22;5809;53.262;10.408;2023-04-03T17:40:17;4.80;99.90
11505;DHT22;5809;53.262;10.408;2023-04-03T17:42:44;4.70;99.90
11505;DHT22;5809;53.262;10.408;2023-04-03T17:45:11;4.70;99.90
11505;DHT22;5809;53.262;10.408;2023-04-03T17:50:06;4.50;99.90
11505;DHT22;5809;53.262;10.408;2023-04-03T17:55:02;4.40;99.90
11505;DHT22;5809;53.262;10.408;2023-04-03T18:04:51;4.10;99.90
11505;DHT22;5809;53.262;10.408;2023-04-03T18:07:18;4.00;99.90
11505;DHT22;5809;53.262;10.408;2023-04-03T18:09:46;3.90;99.90
11505;DHT22;5809;53.262;10.408;2023-04-03T18:12:16;3.80;99.90
11505;DHT22;5809;53.262;10.408;2023-04-03T18:14:44;3.80;99.90
11505;DHT22;5809;53.262;10.408;2023-04-03T18:19:38;3.70;99.90
11505;DHT22;5809;53.262;10.408;2023-04-03T18:22:10;3.60;99.90
11505;DHT22;5809;53.262;10.408;2023-04-03T18:24:38;3.50;99.90
11505;DHT22;5809;53.262;10.408;2023-04-03T18:27:08;3.40;99.90
11505;DHT22;5809;53.262;10.408;2023-04-03T18:29:40;3.40;99.90
11505;DHT22;5809;53.262;10.408;2023-04-03T18:32:09;3.40;99.90
11505;DHT22;5809;53.262;10.408;2023-04-03T18:37:05;3.20;99.90
11505;DHT22;5809;53.262;10.408;2023-04-03T18:42:04;3.20;99.90
11505;DHT22;5809;53.262;10.408;2023-04-03T18:44:32;3.20;99.90
11505;DHT22;5809;53.262;10.408;2023-04-03T18:47:01;3.10;99.90
11505;DHT22;5809;53.262;10.408;2023-04-03T18:49:29;3.00;99.90
11505;DHT22;5809;53.262;10.408;2023-04-03T18:51:56;2.90;99.90
11505;DHT22;5809;53.262;10.408;2023-04-03T18:54:24;2.80;99.90
11505;DHT22;5809;53.262;10.408;2023-04-03T18:56:50;2.80;99.90
11505;DHT22;5809;53.262;10.408;2023-04-03T18:59:17;2.90;99.90
11505;DHT22;5809;53.262;10.408;2023-04-03T19:04:13;2.70;99.90
11505;DHT22;5809;53.262;10.408;2023-04-03T19:11:36;2.60;99.90
11505;DHT22;5809;53.262;10.408;2023-04-03T19:18:58;2.40;99.90
11505;DHT22;5809;53.262;10.408;2023-04-03T19:21:26;2.30;99.90
11505;DHT22;5809;53.262;10.408;2023-04-03T19:23:53;2.30;99.90
11505;DHT22;5809;53.262;10.408;2023-04-03T19:26:23;2.30;99.90
11505;DHT22;5809;53.262;10.408;2023-04-03T19:31:19;2.20;99.90
11505;DHT22;5809;53.262;10.408;2023-04-03T19:33:47;2.20;99.90
11505;DHT22;5809;53.262;10.408;2023-04-03T19:36:15;2.10;99.90
11505;DHT22;5809;53.262;10.408;2023-04-03T19:38:44;2.00;99.90
11505;DHT22;5809;53.262;10.408;2023-04-03T19:43:39;1.90;99.90
11505;DHT22;5809;53.262;10.408;2023-04-03T19:46:07;1.80;99.90
11505;DHT22;5809;53.262;10.408;2023-04-03T19:51:02;1.80;99.90
11505;DHT22;5809;53.262;10.408;2023-04-03T19:53:30;1.70;99.90
11505;DHT22;5809;53.262;10.408;2023-04-03T19:58:27;1.60;99.90
11505;DHT22;5809;53.262;10.408;2023-04-03T20:05:49;1.50;99.90
11505;DHT22;5809;53.262;10.408;2023-04-03T20:08:16;1.50;99.90
11505;DHT22;5809;53.262;10.408;2023-04-03T20:15:40;1.50;99.90
11505;DHT22;5809;53.262;10.408;2023-04-03T20:18:10;1.40;99.90
11505;DHT22;5809;53.262;10.408;2023-04-03T20:20:42;1.40;99.90
11505;DHT22;5809;53.262;10.408;2023-04-03T20:28:09;1.20;99.90
11505;DHT22;5809;53.262;10.408;2023-04-03T20:30:38;1.20;99.90
11505;DHT22;5809;53.262;10.408;2023-04-03T20:40:32;1.20;99.90
11505;DHT22;5809;53.262;10.408;2023-04-03T20:42:59;1.20;99.90
11505;DHT22;5809;53.262;10.408;2023-04-03T20:45:26;1.10;99.90
11505;DHT22;5809;53.262;10.408;2023-04-03T20:50:24;1.00;99.90
11505;DHT22;5809;53.262;10.408;2023-04-03T20:52:52;1.00;99.90
11505;DHT22;5809;53.262;10.408;2023-04-03T20:55:19;1.00;99.90
11505;DHT22;5809;53.262;10.408;2023-04-03T20:57:47;0.90;99.90
11505;DHT22;5809;53.262;10.408;2023-04-03T21:00:14;1.60;99.90
11505;DHT22;5809;53.262;10.408;2023-04-03T21:02:44;0.90;99.90
11505;DHT22;5809;53.262;10.408;2023-04-03T21:21:19;0.50;99.90
11505;DHT22;5809;53.262;10.408;2023-04-03T21:23:48;0.40;99.90
11505;DHT22;5809;53.262;10.408;2023-04-03T21:26:16;0.40;99.90
11505;DHT22;5809;53.262;10.408;2023-04-03T21:33:41;0.30;99.90
11505;DHT22;5809;53.262;10.408;2023-04-03T21:36:08;0.30;99.90
11505;DHT22;5809;53.262;10.408;2023-04-03T21:38:35;0.20;99.90
11505;DHT22;5809;53.262;10.408;2023-04-03T21:41:02;0.30;99.90
11505;DHT22;5809;53.262;10.408;2023-04-03T21:45:57;0.10;99.90
11505;DHT22;5809;53.262;10.408;2023-04-03T21:48:26;0.10;99.90
11505;DHT22;5809;53.262;10.408;2023-04-03T21:51:02;0.10;99.90
11505;DHT22;5809;53.262;10.408;2023-04-03T21:55:59;0.10;99.90
11505;DHT22;5809;53.262;10.408;2023-04-03T21:58:28;0.10;99.90
11505;DHT22;5809;53.262;10.408;2023-04-03T22:00:56;0.00;99.90
11505;DHT22;5809;53.262;10.408;2023-04-03T22:18:11;-0.10;99.90
11505;DHT22;5809;53.262;10.408;2023-04-03T22:20:41;-0.10;99.90